Terminal Aerodrome Forecast
Issued by NWS Sterling, VA

Home | Current Version | Previous Version | Text Only | Print | Product List | Glossary On
Versions: 1 2 3 4 5 6 7 8 9 10 11 12 13 14 15 16 17 18 19 20 21 22
000
FTUS41 KLWX 291400 AAA
TAFBWI
TAF AMD
KBWI 291456Z 2915/3018 VRB04KT P6SM FEW250
     FM291700 15008G16KT P6SM SCT050 OVC090
     FM292100 14009KT 3SM -RAPL BKN025 OVC050
     FM300000 17008KT P6SM BKN050
     FM300400 22008KT P6SM BKN050
     FM300900 27012KT P6SM BKN050
     FM301400 30020G35KT P6SM BKN050=

USA.gov is the U.S. government's official web portal to all federal, state and local government web resources and services.